sensor_id;sensor_type;location;lat;lon;timestamp;P1;durP1;ratioP1;P2;durP2;ratioP2
21245;SDS011;10781;50.928;4.440;2023-07-09T00:01:59;8.45;;;6.18;;
21245;SDS011;10781;50.928;4.440;2023-07-09T00:04:25;11.43;;;6.63;;
21245;SDS011;10781;50.928;4.440;2023-07-09T00:06:51;12.45;;;6.93;;
21245;SDS011;10781;50.928;4.440;2023-07-09T00:09:17;11.07;;;8.10;;
21245;SDS011;10781;50.928;4.440;2023-07-09T00:11:45;9.38;;;6.82;;
21245;SDS011;10781;50.928;4.440;2023-07-09T00:14:11;22.00;;;18.20;;
21245;SDS011;10781;50.928;4.440;2023-07-09T00:16:39;18.05;;;14.27;;
21245;SDS011;10781;50.928;4.440;2023-07-09T00:19:17;8.82;;;7.57;;
21245;SDS011;10781;50.928;4.440;2023-07-09T00:21:45;12.27;;;6.50;;
21245;SDS011;10781;50.928;4.440;2023-07-09T00:24:13;9.88;;;6.55;;
21245;SDS011;10781;50.928;4.440;2023-07-09T00:26:39;8.32;;;6.15;;
21245;SDS011;10781;50.928;4.440;2023-07-09T00:29:09;12.52;;;6.40;;
21245;SDS011;10781;50.928;4.440;2023-07-09T00:31:35;11.32;;;6.90;;
21245;SDS011;10781;50.928;4.440;2023-07-09T00:34:05;10.27;;;6.38;;
21245;SDS011;10781;50.928;4.440;2023-07-09T00:36:38;7.68;;;6.22;;
21245;SDS011;10781;50.928;4.440;2023-07-09T00:39:30;10.07;;;6.45;;
21245;SDS011;10781;50.928;4.440;2023-07-09T00:41:54;13.45;;;7.70;;
21245;SDS011;10781;50.928;4.440;2023-07-09T00:49:36;10.40;;;6.80;;
21245;SDS011;10781;50.928;4.440;2023-07-09T00:52:33;10.20;;;6.32;;
21245;SDS011;10781;50.928;4.440;2023-07-09T00:55:02;10.48;;;6.10;;
21245;SDS011;10781;50.928;4.440;2023-07-09T00:57:33;8.90;;;6.18;;
21245;SDS011;10781;50.928;4.440;2023-07-09T01:00:03;11.65;;;6.50;;
21245;SDS011;10781;50.928;4.440;2023-07-09T01:02:35;8.75;;;6.72;;
21245;SDS011;10781;50.928;4.440;2023-07-09T01:05:02;9.45;;;6.28;;
21245;SDS011;10781;50.928;4.440;2023-07-09T01:07:29;8.48;;;5.80;;
21245;SDS011;10781;50.928;4.440;2023-07-09T01:09:55;9.10;;;6.18;;
21245;SDS011;10781;50.928;4.440;2023-07-09T01:12:21;10.20;;;6.30;;
21245;SDS011;10781;50.928;4.440;2023-07-09T01:14:49;8.50;;;5.93;;
21245;SDS011;10781;50.928;4.440;2023-07-09T01:17:17;8.45;;;6.03;;
21245;SDS011;10781;50.928;4.440;2023-07-09T01:19:44;9.63;;;6.55;;
21245;SDS011;10781;50.928;4.440;2023-07-09T01:22:15;7.07;;;6.25;;
21245;SDS011;10781;50.928;4.440;2023-07-09T01:24:55;9.32;;;5.97;;
21245;SDS011;10781;50.928;4.440;2023-07-09T01:27:31;9.82;;;6.10;;
21245;SDS011;10781;50.928;4.440;2023-07-09T01:30:08;8.52;;;6.10;;
21245;SDS011;10781;50.928;4.440;2023-07-09T01:32:41;8.65;;;6.07;;
21245;SDS011;10781;50.928;4.440;2023-07-09T01:35:11;9.98;;;6.68;;
21245;SDS011;10781;50.928;4.440;2023-07-09T01:37:40;9.45;;;6.93;;
21245;SDS011;10781;50.928;4.440;2023-07-09T01:40:07;9.30;;;6.00;;
21245;SDS011;10781;50.928;4.440;2023-07-09T01:42:35;7.35;;;6.22;;
21245;SDS011;10781;50.928;4.440;2023-07-09T01:45:03;8.15;;;6.40;;
21245;SDS011;10781;50.928;4.440;2023-07-09T01:47:31;8.13;;;6.55;;
21245;SDS011;10781;50.928;4.440;2023-07-09T01:49:57;8.73;;;6.53;;
21245;SDS011;10781;50.928;4.440;2023-07-09T01:52:26;9.43;;;6.50;;
21245;SDS011;10781;50.928;4.440;2023-07-09T01:54:55;11.63;;;7.55;;
21245;SDS011;10781;50.928;4.440;2023-07-09T01:57:22;10.40;;;7.18;;
21245;SDS011;10781;50.928;4.440;2023-07-09T01:59:53;9.18;;;6.97;;
21245;SDS011;10781;50.928;4.440;2023-07-09T02:02:20;9.48;;;6.82;;
21245;SDS011;10781;50.928;4.440;2023-07-09T02:04:49;9.45;;;7.43;;
21245;SDS011;10781;50.928;4.440;2023-07-09T02:07:17;11.13;;;7.10;;
21245;SDS011;10781;50.928;4.440;2023-07-09T02:09:44;11.15;;;7.30;;
21245;SDS011;10781;50.928;4.440;2023-07-09T02:12:10;9.50;;;7.35;;
21245;SDS011;10781;50.928;4.440;2023-07-09T02:14:37;8.20;;;6.90;;
21245;SDS011;10781;50.928;4.440;2023-07-09T02:17:04;10.77;;;7.40;;
21245;SDS011;10781;50.928;4.440;2023-07-09T02:19:30;10.52;;;7.43;;
21245;SDS011;10781;50.928;4.440;2023-07-09T02:21:56;9.40;;;7.47;;
21245;SDS011;10781;50.928;4.440;2023-07-09T02:24:22;10.82;;;8.05;;
21245;SDS011;10781;50.928;4.440;2023-07-09T02:26:50;13.68;;;9.70;;
21245;SDS011;10781;50.928;4.440;2023-07-09T02:29:17;12.70;;;10.07;;
21245;SDS011;10781;50.928;4.440;2023-07-09T02:31:43;12.07;;;8.43;;
21245;SDS011;10781;50.928;4.440;2023-07-09T02:34:09;10.23;;;8.27;;
21245;SDS011;10781;50.928;4.440;2023-07-09T02:36:35;13.15;;;9.38;;
21245;SDS011;10781;50.928;4.440;2023-07-09T02:39:01;14.45;;;11.00;;
21245;SDS011;10781;50.928;4.440;2023-07-09T02:41:27;14.23;;;10.90;;
21245;SDS011;10781;50.928;4.440;2023-07-09T02:43:52;11.82;;;9.95;;
21245;SDS011;10781;50.928;4.440;2023-07-09T02:46:18;10.88;;;9.15;;
21245;SDS011;10781;50.928;4.440;2023-07-09T02:48:44;13.88;;;9.25;;
21245;SDS011;10781;50.928;4.440;2023-07-09T02:51:09;11.27;;;8.35;;
21245;SDS011;10781;50.928;4.440;2023-07-09T02:53:35;13.27;;;8.40;;
21245;SDS011;10781;50.928;4.440;2023-07-09T02:56:00;10.82;;;8.40;;
21245;SDS011;10781;50.928;4.440;2023-07-09T02:58:26;11.82;;;8.48;;
21245;SDS011;10781;50.928;4.440;2023-07-09T03:00:52;11.93;;;8.27;;
21245;SDS011;10781;50.928;4.440;2023-07-09T03:03:18;10.68;;;7.70;;
21245;SDS011;10781;50.928;4.440;2023-07-09T03:05:45;11.00;;;6.97;;
21245;SDS011;10781;50.928;4.440;2023-07-09T03:08:11;10.05;;;7.20;;
21245;SDS011;10781;50.928;4.440;2023-07-09T03:10:37;8.65;;;6.85;;
21245;SDS011;10781;50.928;4.440;2023-07-09T03:13:03;10.88;;;6.68;;
21245;SDS011;10781;50.928;4.440;2023-07-09T03:15:30;11.30;;;6.70;;
21245;SDS011;10781;50.928;4.440;2023-07-09T03:17:56;9.68;;;6.65;;
21245;SDS011;10781;50.928;4.440;2023-07-09T03:20:22;9.38;;;5.82;;
21245;SDS011;10781;50.928;4.440;2023-07-09T03:22:48;9.80;;;6.05;;
21245;SDS011;10781;50.928;4.440;2023-07-09T03:25:13;9.38;;;5.90;;
21245;SDS011;10781;50.928;4.440;2023-07-09T03:27:39;9.15;;;5.57;;
21245;SDS011;10781;50.928;4.440;2023-07-09T03:30:05;8.95;;;5.82;;
21245;SDS011;10781;50.928;4.440;2023-07-09T03:32:31;6.72;;;5.30;;
21245;SDS011;10781;50.928;4.440;2023-07-09T03:34:57;8.30;;;5.63;;
21245;SDS011;10781;50.928;4.440;2023-07-09T03:37:22;7.78;;;5.68;;
21245;SDS011;10781;50.928;4.440;2023-07-09T03:39:48;6.28;;;5.03;;
21245;SDS011;10781;50.928;4.440;2023-07-09T03:42:15;7.45;;;5.32;;
21245;SDS011;10781;50.928;4.440;2023-07-09T03:44:41;8.88;;;5.90;;
21245;SDS011;10781;50.928;4.440;2023-07-09T03:47:07;8.98;;;5.78;;
21245;SDS011;10781;50.928;4.440;2023-07-09T03:49:32;8.52;;;6.07;;
21245;SDS011;10781;50.928;4.440;2023-07-09T03:51:58;7.78;;;5.78;;
21245;SDS011;10781;50.928;4.440;2023-07-09T03:54:24;8.98;;;6.13;;
21245;SDS011;10781;50.928;4.440;2023-07-09T03:56:49;7.25;;;5.93;;
21245;SDS011;10781;50.928;4.440;2023-07-09T03:59:15;7.50;;;5.55;;
21245;SDS011;10781;50.928;4.440;2023-07-09T04:01:41;11.60;;;5.93;;
21245;SDS011;10781;50.928;4.440;2023-07-09T04:04:11;9.45;;;5.50;;
21245;SDS011;10781;50.928;4.440;2023-07-09T04:06:38;9.27;;;6.32;;
21245;SDS011;10781;50.928;4.440;2023-07-09T04:09:04;8.10;;;5.78;;
21245;SDS011;10781;50.928;4.440;2023-07-09T04:11:29;8.45;;;5.80;;
21245;SDS011;10781;50.928;4.440;2023-07-09T04:13:55;10.38;;;6.15;;
21245;SDS011;10781;50.928;4.440;2023-07-09T04:16:21;10.75;;;6.13;;
21245;SDS011;10781;50.928;4.440;2023-07-09T04:18:46;7.65;;;5.90;;
21245;SDS011;10781;50.928;4.440;2023-07-09T04:21:12;8.00;;;6.00;;
21245;SDS011;10781;50.928;4.440;2023-07-09T04:23:37;8.65;;;6.30;;
21245;SDS011;10781;50.928;4.440;2023-07-09T04:26:03;7.15;;;5.53;;
21245;SDS011;10781;50.928;4.440;2023-07-09T04:28:29;8.77;;;5.70;;
21245;SDS011;10781;50.928;4.440;2023-07-09T04:30:56;11.23;;;6.40;;
21245;SDS011;10781;50.928;4.440;2023-07-09T04:33:21;6.22;;;5.60;;
21245;SDS011;10781;50.928;4.440;2023-07-09T04:35:47;8.45;;;5.90;;
21245;SDS011;10781;50.928;4.440;2023-07-09T04:38:14;7.53;;;5.85;;
21245;SDS011;10781;50.928;4.440;2023-07-09T04:40:40;15.20;;;5.72;;
21245;SDS011;10781;50.928;4.440;2023-07-09T04:43:05;9.85;;;5.80;;
21245;SDS011;10781;50.928;4.440;2023-07-09T04:45:31;8.80;;;5.80;;
21245;SDS011;10781;50.928;4.440;2023-07-09T04:47:57;11.07;;;6.10;;
21245;SDS011;10781;50.928;4.440;2023-07-09T04:50:22;9.57;;;6.20;;
21245;SDS011;10781;50.928;4.440;2023-07-09T04:52:48;8.10;;;5.88;;
21245;SDS011;10781;50.928;4.440;2023-07-09T04:55:14;7.50;;;5.50;;
21245;SDS011;10781;50.928;4.440;2023-07-09T04:57:39;9.57;;;5.75;;
21245;SDS011;10781;50.928;4.440;2023-07-09T05:00:05;10.70;;;6.32;;
21245;SDS011;10781;50.928;4.440;2023-07-09T05:02:32;10.48;;;5.55;;
21245;SDS011;10781;50.928;4.440;2023-07-09T05:04:58;8.23;;;5.82;;
21245;SDS011;10781;50.928;4.440;2023-07-09T05:07:23;8.45;;;6.05;;
21245;SDS011;10781;50.928;4.440;2023-07-09T05:09:49;7.80;;;5.63;;
21245;SDS011;10781;50.928;4.440;2023-07-09T05:12:15;11.60;;;5.97;;
21245;SDS011;10781;50.928;4.440;2023-07-09T05:14:40;13.07;;;5.97;;
21245;SDS011;10781;50.928;4.440;2023-07-09T05:17:06;8.68;;;5.40;;
21245;SDS011;10781;50.928;4.440;2023-07-09T05:19:32;9.25;;;5.90;;
21245;SDS011;10781;50.928;4.440;2023-07-09T05:21:58;9.07;;;6.00;;
21245;SDS011;10781;50.928;4.440;2023-07-09T05:24:24;8.70;;;5.82;;
21245;SDS011;10781;50.928;4.440;2023-07-09T05:26:49;9.55;;;6.10;;
21245;SDS011;10781;50.928;4.440;2023-07-09T05:29:15;7.50;;;5.57;;
21245;SDS011;10781;50.928;4.440;2023-07-09T05:31:41;11.55;;;5.90;;
21245;SDS011;10781;50.928;4.440;2023-07-09T05:34:07;8.32;;;5.22;;
21245;SDS011;10781;50.928;4.440;2023-07-09T05:36:33;11.13;;;5.78;;
21245;SDS011;10781;50.928;4.440;2023-07-09T05:38:59;8.20;;;5.18;;
21245;SDS011;10781;50.928;4.440;2023-07-09T05:41:24;10.10;;;5.43;;
21245;SDS011;10781;50.928;4.440;2023-07-09T05:43:51;9.90;;;5.63;;
21245;SDS011;10781;50.928;4.440;2023-07-09T05:46:17;8.43;;;5.22;;
21245;SDS011;10781;50.928;4.440;2023-07-09T05:48:43;12.38;;;5.60;;
21245;SDS011;10781;50.928;4.440;2023-07-09T05:51:09;10.40;;;5.20;;
21245;SDS011;10781;50.928;4.440;2023-07-09T05:53:35;9.50;;;5.65;;
21245;SDS011;10781;50.928;4.440;2023-07-09T05:56:00;8.18;;;5.95;;
21245;SDS011;10781;50.928;4.440;2023-07-09T05:58:26;10.10;;;5.60;;
21245;SDS011;10781;50.928;4.440;2023-07-09T06:00:53;8.82;;;5.43;;
21245;SDS011;10781;50.928;4.440;2023-07-09T06:03:21;9.63;;;5.10;;
21245;SDS011;10781;50.928;4.440;2023-07-09T06:05:48;8.05;;;5.07;;
21245;SDS011;10781;50.928;4.440;2023-07-09T06:08:17;9.18;;;5.25;;
21245;SDS011;10781;50.928;4.440;2023-07-09T06:10:50;10.35;;;5.65;;
21245;SDS011;10781;50.928;4.440;2023-07-09T06:13:20;17.25;;;5.30;;
21245;SDS011;10781;50.928;4.440;2023-07-09T06:15:47;9.90;;;5.32;;
21245;SDS011;10781;50.928;4.440;2023-07-09T06:18:13;7.38;;;4.75;;
21245;SDS011;10781;50.928;4.440;2023-07-09T06:20:39;6.63;;;4.63;;
21245;SDS011;10781;50.928;4.440;2023-07-09T06:23:05;8.45;;;5.32;;
21245;SDS011;10781;50.928;4.440;2023-07-09T06:25:30;8.23;;;5.63;;
21245;SDS011;10781;50.928;4.440;2023-07-09T06:27:57;8.82;;;5.43;;
21245;SDS011;10781;50.928;4.440;2023-07-09T06:30:22;10.05;;;5.22;;
21245;SDS011;10781;50.928;4.440;2023-07-09T06:32:48;7.10;;;5.13;;
21245;SDS011;10781;50.928;4.440;2023-07-09T06:35:14;8.07;;;5.53;;
21245;SDS011;10781;50.928;4.440;2023-07-09T06:37:40;9.73;;;5.55;;
21245;SDS011;10781;50.928;4.440;2023-07-09T06:40:05;6.53;;;4.72;;
21245;SDS011;10781;50.928;4.440;2023-07-09T06:42:34;7.93;;;5.10;;
21245;SDS011;10781;50.928;4.440;2023-07-09T06:45:01;10.63;;;5.03;;
21245;SDS011;10781;50.928;4.440;2023-07-09T06:47:29;7.30;;;4.90;;
21245;SDS011;10781;50.928;4.440;2023-07-09T06:49:55;10.20;;;5.43;;
21245;SDS011;10781;50.928;4.440;2023-07-09T06:52:21;6.22;;;5.18;;
21245;SDS011;10781;50.928;4.440;2023-07-09T06:54:46;8.05;;;5.07;;
21245;SDS011;10781;50.928;4.440;2023-07-09T06:57:14;8.30;;;5.03;;
21245;SDS011;10781;50.928;4.440;2023-07-09T06:59:39;8.43;;;5.47;;
21245;SDS011;10781;50.928;4.440;2023-07-09T07:02:05;9.48;;;5.20;;
21245;SDS011;10781;50.928;4.440;2023-07-09T07:04:31;8.85;;;5.30;;
21245;SDS011;10781;50.928;4.440;2023-07-09T07:06:56;8.95;;;5.60;;
21245;SDS011;10781;50.928;4.440;2023-07-09T07:09:22;12.15;;;5.78;;
21245;SDS011;10781;50.928;4.440;2023-07-09T07:11:49;10.75;;;5.97;;
21245;SDS011;10781;50.928;4.440;2023-07-09T07:14:15;10.05;;;6.45;;
21245;SDS011;10781;50.928;4.440;2023-07-09T07:16:40;12.43;;;7.43;;
21245;SDS011;10781;50.928;4.440;2023-07-09T07:19:06;12.68;;;8.57;;
21245;SDS011;10781;50.928;4.440;2023-07-09T07:21:32;14.23;;;10.38;;
21245;SDS011;10781;50.928;4.440;2023-07-09T07:23:58;16.38;;;12.02;;
21245;SDS011;10781;50.928;4.440;2023-07-09T07:26:23;17.70;;;13.40;;
21245;SDS011;10781;50.928;4.440;2023-07-09T07:28:49;19.42;;;12.82;;
21245;SDS011;10781;50.928;4.440;2023-07-09T07:31:15;23.15;;;15.15;;
21245;SDS011;10781;50.928;4.440;2023-07-09T07:33:42;18.63;;;12.93;;
21245;SDS011;10781;50.928;4.440;2023-07-09T07:36:08;19.98;;;14.05;;
21245;SDS011;10781;50.928;4.440;2023-07-09T07:38:34;21.48;;;15.95;;
21245;SDS011;10781;50.928;4.440;2023-07-09T07:41:00;20.45;;;16.67;;
21245;SDS011;10781;50.928;4.440;2023-07-09T07:43:26;23.13;;;18.60;;
21245;SDS011;10781;50.928;4.440;2023-07-09T07:45:52;25.58;;;18.67;;
21245;SDS011;10781;50.928;4.440;2023-07-09T07:48:17;31.13;;;23.83;;
21245;SDS011;10781;50.928;4.440;2023-07-09T07:50:43;30.33;;;23.35;;
21245;SDS011;10781;50.928;4.440;2023-07-09T07:53:11;29.10;;;20.95;;
21245;SDS011;10781;50.928;4.440;2023-07-09T07:55:37;28.55;;;23.85;;
21245;SDS011;10781;50.928;4.440;2023-07-09T07:58:03;30.42;;;23.90;;
21245;SDS011;10781;50.928;4.440;2023-07-09T08:00:29;29.08;;;24.52;;
21245;SDS011;10781;50.928;4.440;2023-07-09T08:02:55;31.38;;;23.65;;
21245;SDS011;10781;50.928;4.440;2023-07-09T08:05:21;28.85;;;22.90;;
21245;SDS011;10781;50.928;4.440;2023-07-09T08:07:48;28.85;;;24.25;;
21245;SDS011;10781;50.928;4.440;2023-07-09T08:10:14;30.50;;;24.73;;
21245;SDS011;10781;50.928;4.440;2023-07-09T08:12:40;28.17;;;22.95;;
21245;SDS011;10781;50.928;4.440;2023-07-09T08:15:06;31.05;;;23.42;;
21245;SDS011;10781;50.928;4.440;2023-07-09T08:17:32;28.67;;;23.85;;
21245;SDS011;10781;50.928;4.440;2023-07-09T08:19:58;31.20;;;25.80;;
21245;SDS011;10781;50.928;4.440;2023-07-09T08:22:23;28.00;;;24.45;;
21245;SDS011;10781;50.928;4.440;2023-07-09T08:24:49;28.80;;;23.42;;
21245;SDS011;10781;50.928;4.440;2023-07-09T08:27:16;27.85;;;24.08;;
21245;SDS011;10781;50.928;4.440;2023-07-09T08:29:42;30.65;;;26.75;;
21245;SDS011;10781;50.928;4.440;2023-07-09T08:32:09;32.92;;;28.02;;
21245;SDS011;10781;50.928;4.440;2023-07-09T08:34:37;35.42;;;30.30;;
21245;SDS011;10781;50.928;4.440;2023-07-09T08:37:03;31.95;;;27.95;;
21245;SDS011;10781;50.928;4.440;2023-07-09T08:39:30;31.15;;;24.40;;
21245;SDS011;10781;50.928;4.440;2023-07-09T08:42:02;33.35;;;28.00;;
21245;SDS011;10781;50.928;4.440;2023-07-09T08:50:35;33.40;;;28.98;;
21245;SDS011;10781;50.928;4.440;2023-07-09T08:52:57;32.53;;;27.33;;
21245;SDS011;10781;50.928;4.440;2023-07-09T08:55:25;26.08;;;21.98;;
21245;SDS011;10781;50.928;4.440;2023-07-09T08:57:55;25.58;;;21.35;;
21245;SDS011;10781;50.928;4.440;2023-07-09T09:03:16;29.00;;;24.38;;
21245;SDS011;10781;50.928;4.440;2023-07-09T09:05:47;32.25;;;25.05;;
21245;SDS011;10781;50.928;4.440;2023-07-09T09:13:39;28.20;;;25.27;;
21245;SDS011;10781;50.928;4.440;2023-07-09T09:16:49;26.13;;;23.33;;
21245;SDS011;10781;50.928;4.440;2023-07-09T09:19:00;29.63;;;26.30;;
21245;SDS011;10781;50.928;4.440;2023-07-09T09:21:31;29.85;;;26.15;;
21245;SDS011;10781;50.928;4.440;2023-07-09T09:24:03;31.67;;;28.17;;
21245;SDS011;10781;50.928;4.440;2023-07-09T09:26:45;33.80;;;30.25;;
21245;SDS011;10781;50.928;4.440;2023-07-09T09:29:14;32.15;;;28.77;;
21245;SDS011;10781;50.928;4.440;2023-07-09T09:31:41;28.02;;;25.13;;
21245;SDS011;10781;50.928;4.440;2023-07-09T09:34:16;29.35;;;25.30;;
21245;SDS011;10781;50.928;4.440;2023-07-09T09:36:44;29.60;;;26.40;;
21245;SDS011;10781;50.928;4.440;2023-07-09T09:39:09;30.77;;;27.00;;
21245;SDS011;10781;50.928;4.440;2023-07-09T09:41:36;28.65;;;23.83;;
21245;SDS011;10781;50.928;4.440;2023-07-09T09:44:03;25.92;;;23.33;;
21245;SDS011;10781;50.928;4.440;2023-07-09T09:46:30;24.63;;;21.88;;
21245;SDS011;10781;50.928;4.440;2023-07-09T09:49:00;24.70;;;21.80;;
21245;SDS011;10781;50.928;4.440;2023-07-09T09:51:27;22.75;;;19.45;;
21245;SDS011;10781;50.928;4.440;2023-07-09T09:53:57;22.25;;;19.73;;
21245;SDS011;10781;50.928;4.440;2023-07-09T09:56:28;24.08;;;21.45;;
21245;SDS011;10781;50.928;4.440;2023-07-09T09:58:55;25.80;;;21.63;;
21245;SDS011;10781;50.928;4.440;2023-07-09T10:01:29;22.55;;;20.15;;
21245;SDS011;10781;50.928;4.440;2023-07-09T10:03:58;23.35;;;20.42;;
21245;SDS011;10781;50.928;4.440;2023-07-09T10:06:44;24.88;;;21.65;;
21245;SDS011;10781;50.928;4.440;2023-07-09T10:15:23;18.70;;;16.70;;
21245;SDS011;10781;50.928;4.440;2023-07-09T10:20:57;17.80;;;14.82;;
21245;SDS011;10781;50.928;4.440;2023-07-09T10:23:35;13.25;;;11.95;;
21245;SDS011;10781;50.928;4.440;2023-07-09T10:31:50;13.48;;;10.20;;
21245;SDS011;10781;50.928;4.440;2023-07-09T10:34:50;12.25;;;9.43;;
21245;SDS011;10781;50.928;4.440;2023-07-09T10:42:59;14.27;;;8.38;;
21245;SDS011;10781;50.928;4.440;2023-07-09T10:45:31;9.02;;;7.90;;
21245;SDS011;10781;50.928;4.440;2023-07-09T10:48:06;11.88;;;7.32;;
21245;SDS011;10781;50.928;4.440;2023-07-09T10:50:50;8.48;;;6.75;;
21245;SDS011;10781;50.928;4.440;2023-07-09T10:56:05;8.45;;;6.38;;
21245;SDS011;10781;50.928;4.440;2023-07-09T10:58:54;8.48;;;5.95;;
21245;SDS011;10781;50.928;4.440;2023-07-09T11:01:29;8.95;;;6.10;;
21245;SDS011;10781;50.928;4.440;2023-07-09T11:04:05;7.68;;;5.40;;
21245;SDS011;10781;50.928;4.440;2023-07-09T11:06:43;10.80;;;5.88;;
21245;SDS011;10781;50.928;4.440;2023-07-09T11:09:21;8.23;;;4.82;;
21245;SDS011;10781;50.928;4.440;2023-07-09T11:11:53;9.40;;;4.40;;
21245;SDS011;10781;50.928;4.440;2023-07-09T11:16:59;6.55;;;4.72;;
21245;SDS011;10781;50.928;4.440;2023-07-09T11:19:26;6.40;;;4.75;;
21245;SDS011;10781;50.928;4.440;2023-07-09T11:21:59;8.20;;;4.47;;
21245;SDS011;10781;50.928;4.440;2023-07-09T11:24:34;7.55;;;4.40;;
21245;SDS011;10781;50.928;4.440;2023-07-09T11:27:21;6.80;;;4.50;;
21245;SDS011;10781;50.928;4.440;2023-07-09T11:30:18;7.88;;;4.80;;
21245;SDS011;10781;50.928;4.440;2023-07-09T11:32:46;7.20;;;4.10;;
21245;SDS011;10781;50.928;4.440;2023-07-09T11:35:20;5.18;;;3.90;;
21245;SDS011;10781;50.928;4.440;2023-07-09T11:37:50;6.88;;;4.22;;
21245;SDS011;10781;50.928;4.440;2023-07-09T11:40:18;4.95;;;3.60;;
21245;SDS011;10781;50.928;4.440;2023-07-09T11:42:54;6.30;;;4.07;;
21245;SDS011;10781;50.928;4.440;2023-07-09T11:45:31;8.25;;;3.60;;
21245;SDS011;10781;50.928;4.440;2023-07-09T11:50:44;7.38;;;3.75;;
21245;SDS011;10781;50.928;4.440;2023-07-09T11:55:42;5.43;;;3.85;;
21245;SDS011;10781;50.928;4.440;2023-07-09T11:58:11;5.28;;;3.92;;
21245;SDS011;10781;50.928;4.440;2023-07-09T12:00:50;7.45;;;5.28;;
21245;SDS011;10781;50.928;4.440;2023-07-09T12:03:26;7.40;;;4.20;;
21245;SDS011;10781;50.928;4.440;2023-07-09T12:06:03;4.57;;;3.92;;
21245;SDS011;10781;50.928;4.440;2023-07-09T12:08:42;6.72;;;3.70;;
21245;SDS011;10781;50.928;4.440;2023-07-09T12:11:26;4.93;;;3.53;;
21245;SDS011;10781;50.928;4.440;2023-07-09T12:14:29;6.20;;;3.42;;
21245;SDS011;10781;50.928;4.440;2023-07-09T12:16:50;6.93;;;3.40;;
21245;SDS011;10781;50.928;4.440;2023-07-09T12:19:19;6.15;;;3.78;;
21245;SDS011;10781;50.928;4.440;2023-07-09T12:21:55;5.93;;;3.80;;
21245;SDS011;10781;50.928;4.440;2023-07-09T12:24:24;8.45;;;3.40;;
21245;SDS011;10781;50.928;4.440;2023-07-09T12:26:58;7.78;;;3.83;;
21245;SDS011;10781;50.928;4.440;2023-07-09T12:29:26;6.63;;;3.78;;
21245;SDS011;10781;50.928;4.440;2023-07-09T12:31:53;4.40;;;3.63;;
21245;SDS011;10781;50.928;4.440;2023-07-09T12:34:21;4.85;;;3.75;;
21245;SDS011;10781;50.928;4.440;2023-07-09T12:36:48;7.57;;;3.97;;
21245;SDS011;10781;50.928;4.440;2023-07-09T12:39:16;6.50;;;3.58;;
21245;SDS011;10781;50.928;4.440;2023-07-09T12:41:47;19.10;;;6.32;;
21245;SDS011;10781;50.928;4.440;2023-07-09T12:44:20;8.82;;;5.88;;
21245;SDS011;10781;50.928;4.440;2023-07-09T12:46:48;10.27;;;6.75;;
21245;SDS011;10781;50.928;4.440;2023-07-09T12:49:24;12.70;;;6.75;;
21245;SDS011;10781;50.928;4.440;2023-07-09T12:51:53;10.13;;;7.22;;
21245;SDS011;10781;50.928;4.440;2023-07-09T12:54:23;11.35;;;7.38;;
21245;SDS011;10781;50.928;4.440;2023-07-09T12:56:53;12.13;;;8.23;;
21245;SDS011;10781;50.928;4.440;2023-07-09T13:01:50;15.00;;;10.35;;
21245;SDS011;10781;50.928;4.440;2023-07-09T13:04:34;15.57;;;9.70;;
21245;SDS011;10781;50.928;4.440;2023-07-09T13:07:03;12.20;;;9.55;;
21245;SDS011;10781;50.928;4.440;2023-07-09T13:09:29;17.08;;;11.05;;
21245;SDS011;10781;50.928;4.440;2023-07-09T13:11:55;13.00;;;9.88;;
21245;SDS011;10781;50.928;4.440;2023-07-09T13:14:24;14.50;;;9.80;;
21245;SDS011;10781;50.928;4.440;2023-07-09T13:16:51;11.85;;;9.35;;
21245;SDS011;10781;50.928;4.440;2023-07-09T13:19:18;13.85;;;9.18;;
21245;SDS011;10781;50.928;4.440;2023-07-09T13:21:44;16.13;;;9.02;;
21245;SDS011;10781;50.928;4.440;2023-07-09T13:24:18;11.52;;;8.75;;
21245;SDS011;10781;50.928;4.440;2023-07-09T13:26:47;12.00;;;8.63;;
21245;SDS011;10781;50.928;4.440;2023-07-09T13:29:16;11.55;;;8.73;;
21245;SDS011;10781;50.928;4.440;2023-07-09T13:31:47;9.60;;;7.57;;
21245;SDS011;10781;50.928;4.440;2023-07-09T13:34:19;9.57;;;7.07;;
21245;SDS011;10781;50.928;4.440;2023-07-09T13:36:53;8.70;;;7.00;;
21245;SDS011;10781;50.928;4.440;2023-07-09T13:39:21;11.52;;;7.53;;
21245;SDS011;10781;50.928;4.440;2023-07-09T13:41:48;11.68;;;7.72;;
21245;SDS011;10781;50.928;4.440;2023-07-09T13:44:20;13.07;;;7.10;;
21245;SDS011;10781;50.928;4.440;2023-07-09T13:46:50;10.02;;;7.00;;
21245;SDS011;10781;50.928;4.440;2023-07-09T13:49:18;13.02;;;7.50;;
21245;SDS011;10781;50.928;4.440;2023-07-09T13:51:46;9.77;;;6.75;;
21245;SDS011;10781;50.928;4.440;2023-07-09T13:54:17;9.60;;;6.90;;
21245;SDS011;10781;50.928;4.440;2023-07-09T13:56:45;11.30;;;6.72;;
21245;SDS011;10781;50.928;4.440;2023-07-09T13:59:19;12.13;;;6.97;;
21245;SDS011;10781;50.928;4.440;2023-07-09T14:01:47;8.77;;;6.35;;
21245;SDS011;10781;50.928;4.440;2023-07-09T14:04:15;11.23;;;6.75;;
21245;SDS011;10781;50.928;4.440;2023-07-09T14:06:42;9.25;;;6.25;;
21245;SDS011;10781;50.928;4.440;2023-07-09T14:09:09;9.50;;;5.63;;
21245;SDS011;10781;50.928;4.440;2023-07-09T14:11:36;7.43;;;4.93;;
21245;SDS011;10781;50.928;4.440;2023-07-09T14:14:18;8.18;;;4.90;;
21245;SDS011;10781;50.928;4.440;2023-07-09T14:16:45;6.72;;;4.35;;
21245;SDS011;10781;50.928;4.440;2023-07-09T14:19:13;6.82;;;4.35;;
21245;SDS011;10781;50.928;4.440;2023-07-09T14:21:40;6.32;;;4.20;;
21245;SDS011;10781;50.928;4.440;2023-07-09T14:24:26;8.77;;;3.90;;
21245;SDS011;10781;50.928;4.440;2023-07-09T14:26:55;6.90;;;3.85;;
21245;SDS011;10781;50.928;4.440;2023-07-09T14:29:22;7.05;;;4.10;;
21245;SDS011;10781;50.928;4.440;2023-07-09T14:31:49;6.78;;;3.72;;
21245;SDS011;10781;50.928;4.440;2023-07-09T14:34:28;6.07;;;4.07;;
21245;SDS011;10781;50.928;4.440;2023-07-09T14:36:57;7.50;;;3.78;;
21245;SDS011;10781;50.928;4.440;2023-07-09T14:39:26;6.32;;;3.75;;
21245;SDS011;10781;50.928;4.440;2023-07-09T14:41:52;6.72;;;3.63;;
21245;SDS011;10781;50.928;4.440;2023-07-09T14:44:22;5.30;;;3.53;;
21245;SDS011;10781;50.928;4.440;2023-07-09T14:46:54;7.45;;;3.83;;
21245;SDS011;10781;50.928;4.440;2023-07-09T14:49:22;6.28;;;3.55;;
21245;SDS011;10781;50.928;4.440;2023-07-09T14:51:49;6.38;;;4.15;;
21245;SDS011;10781;50.928;4.440;2023-07-09T14:56:49;7.25;;;3.70;;
21245;SDS011;10781;50.928;4.440;2023-07-09T14:59:16;5.70;;;4.05;;
21245;SDS011;10781;50.928;4.440;2023-07-09T15:01:42;6.65;;;3.70;;
21245;SDS011;10781;50.928;4.440;2023-07-09T15:04:22;5.40;;;3.45;;
21245;SDS011;10781;50.928;4.440;2023-07-09T15:06:58;5.93;;;3.90;;
21245;SDS011;10781;50.928;4.440;2023-07-09T15:09:26;7.20;;;3.97;;
21245;SDS011;10781;50.928;4.440;2023-07-09T15:11:56;6.18;;;3.42;;
21245;SDS011;10781;50.928;4.440;2023-07-09T15:14:24;4.95;;;3.55;;
21245;SDS011;10781;50.928;4.440;2023-07-09T15:16:51;6.75;;;3.42;;
21245;SDS011;10781;50.928;4.440;2023-07-09T15:19:19;4.47;;;3.42;;
21245;SDS011;10781;50.928;4.440;2023-07-09T15:21:46;5.03;;;3.38;;
21245;SDS011;10781;50.928;4.440;2023-07-09T15:24:32;6.38;;;3.42;;
21245;SDS011;10781;50.928;4.440;2023-07-09T15:27:00;5.00;;;3.20;;
21245;SDS011;10781;50.928;4.440;2023-07-09T15:29:26;4.45;;;3.42;;
21245;SDS011;10781;50.928;4.440;2023-07-09T15:31:53;5.50;;;3.22;;
21245;SDS011;10781;50.928;4.440;2023-07-09T15:34:19;5.03;;;2.92;;
21245;SDS011;10781;50.928;4.440;2023-07-09T15:36:45;6.20;;;3.40;;
21245;SDS011;10781;50.928;4.440;2023-07-09T15:39:14;5.32;;;3.05;;
21245;SDS011;10781;50.928;4.440;2023-07-09T15:41:40;5.00;;;3.20;;
21245;SDS011;10781;50.928;4.440;2023-07-09T15:44:15;6.38;;;3.63;;